Terminal Aerodrome Forecast
Issued by NWS Wilmington, OH

Current Version | Previous Version | Graphics & Text | Print | Product List | Glossary On
Versions: 1 2 3 4 5 6 7 8 9 10 11 12 13 14 15 16 17 18 19 20 21 22 23 24 25 26 27 28 29 30 31 32 33 34 35
000
FTUS41 KILN 271700 AAC
TAFCVG
TAF AMD
KCVG 271700Z 2717/2818 24007KT P6SM BKN025
     FM271800 24008KT P6SM BKN035
     FM272100 28008KT P6SM VCSH BKN040
     FM280000 32004KT P6SM BKN080
     FM280600 16004KT P6SM VCSH OVC050
     FM280900 17008KT P6SM -SHRA OVC025
     FM281400 21010KT P6SM FEW025 BKN060=

USA.gov is the U.S. government's official web portal to all federal, state and local government web resources and services.